Terminal Aerodrome Forecast
Issued by NWS

Home | Current Version | Previous Version | Text Only | Print | Product List | Glossary On
Versions: 1 2 3 4 5 6 7 8 9 10 11 12 13 14 15 16 17 18 19 20 21 22 23 24 25 26 27 28 29 30 31 32 33 34
000
FTUS43 KDLH 100500
TAFHYR
TAF
KHYR 100532Z 1006/1106 VRB02KT P6SM SKC
      TEMPO 1008/1012 3SM BR
     FM101400 17008KT P6SM FEW050
     FM102000 19012KT P6SM SCT050=

USA.gov is the U.S. government's official web portal to all federal, state and local government web resources and services.